sensor_id;sensor_type;location;lat;lon;timestamp;temperature;humidity
48328;DHT22;34136;51.022;7.082;2023-02-28T00:00:12;-0.80;1.00
48328;DHT22;34136;51.022;7.082;2023-02-28T00:02:59;-0.70;1.00
48328;DHT22;34136;51.022;7.082;2023-02-28T00:05:45;-0.70;1.00
48328;DHT22;34136;51.022;7.082;2023-02-28T00:08:31;-0.70;1.00
48328;DHT22;34136;51.022;7.082;2023-02-28T00:11:17;-0.80;1.00
48328;DHT22;34136;51.022;7.082;2023-02-28T00:14:03;-0.70;1.00
48328;DHT22;34136;51.022;7.082;2023-02-28T00:16:50;-0.70;1.00
48328;DHT22;34136;51.022;7.082;2023-02-28T00:19:36;-0.70;1.00
48328;DHT22;34136;51.022;7.082;2023-02-28T00:22:22;-0.80;1.00
48328;DHT22;34136;51.022;7.082;2023-02-28T00:25:10;-0.80;1.00
48328;DHT22;34136;51.022;7.082;2023-02-28T00:27:56;-0.80;1.00
48328;DHT22;34136;51.022;7.082;2023-02-28T00:30:43;-0.90;1.00
48328;DHT22;34136;51.022;7.082;2023-02-28T00:33:29;-0.90;1.00
48328;DHT22;34136;51.022;7.082;2023-02-28T00:36:16;-0.90;1.00
48328;DHT22;34136;51.022;7.082;2023-02-28T00:39:02;-0.80;1.00
48328;DHT22;34136;51.022;7.082;2023-02-28T00:41:48;-0.90;1.00
48328;DHT22;34136;51.022;7.082;2023-02-28T00:44:34;-0.90;1.00
48328;DHT22;34136;51.022;7.082;2023-02-28T00:47:20;-0.80;1.00
48328;DHT22;34136;51.022;7.082;2023-02-28T00:50:07;-0.90;1.00
48328;DHT22;34136;51.022;7.082;2023-02-28T00:52:53;-0.90;1.00
48328;DHT22;34136;51.022;7.082;2023-02-28T00:55:40;-1.00;1.00
48328;DHT22;34136;51.022;7.082;2023-02-28T00:58:26;-1.00;1.00
48328;DHT22;34136;51.022;7.082;2023-02-28T01:01:12;-1.10;1.00
48328;DHT22;34136;51.022;7.082;2023-02-28T01:03:58;-1.20;1.00
48328;DHT22;34136;51.022;7.082;2023-02-28T01:06:45;-1.20;1.00
48328;DHT22;34136;51.022;7.082;2023-02-28T01:09:31;-1.20;1.00
48328;DHT22;34136;51.022;7.082;2023-02-28T01:12:17;-1.30;1.00
48328;DHT22;34136;51.022;7.082;2023-02-28T01:15:06;-1.30;1.00
48328;DHT22;34136;51.022;7.082;2023-02-28T01:17:53;-1.30;1.00
48328;DHT22;34136;51.022;7.082;2023-02-28T01:20:39;-1.40;1.00
48328;DHT22;34136;51.022;7.082;2023-02-28T01:23:44;-1.40;1.00
48328;DHT22;34136;51.022;7.082;2023-02-28T01:26:31;-1.50;1.00
48328;DHT22;34136;51.022;7.082;2023-02-28T01:29:17;-1.50;1.00
48328;DHT22;34136;51.022;7.082;2023-02-28T01:32:04;-1.50;1.00
48328;DHT22;34136;51.022;7.082;2023-02-28T01:34:51;-1.50;1.00
48328;DHT22;34136;51.022;7.082;2023-02-28T01:37:37;-1.50;1.00
48328;DHT22;34136;51.022;7.082;2023-02-28T01:40:23;-1.50;1.00
48328;DHT22;34136;51.022;7.082;2023-02-28T01:43:59;-1.50;1.00
48328;DHT22;34136;51.022;7.082;2023-02-28T01:46:46;-1.50;1.00
48328;DHT22;34136;51.022;7.082;2023-02-28T01:49:34;-1.50;1.00
48328;DHT22;34136;51.022;7.082;2023-02-28T01:52:39;-1.50;1.00
48328;DHT22;34136;51.022;7.082;2023-02-28T01:55:26;-1.60;1.00
48328;DHT22;34136;51.022;7.082;2023-02-28T01:58:13;-1.70;1.00
48328;DHT22;34136;51.022;7.082;2023-02-28T02:01:00;-1.70;1.00
48328;DHT22;34136;51.022;7.082;2023-02-28T02:03:49;-1.70;1.00
48328;DHT22;34136;51.022;7.082;2023-02-28T02:06:43;-1.70;1.00
48328;DHT22;34136;51.022;7.082;2023-02-28T02:09:30;-1.80;1.00
48328;DHT22;34136;51.022;7.082;2023-02-28T02:15:28;-1.80;1.00
48328;DHT22;34136;51.022;7.082;2023-02-28T02:18:31;-1.90;1.00
48328;DHT22;34136;51.022;7.082;2023-02-28T02:24:33;-1.90;1.00
48328;DHT22;34136;51.022;7.082;2023-02-28T02:30:48;-2.00;1.00
48328;DHT22;34136;51.022;7.082;2023-02-28T02:40:26;-2.10;1.00
48328;DHT22;34136;51.022;7.082;2023-02-28T02:43:19;-2.20;1.00
48328;DHT22;34136;51.022;7.082;2023-02-28T02:46:12;-2.10;1.00
48328;DHT22;34136;51.022;7.082;2023-02-28T02:49:25;-2.20;1.00
48328;DHT22;34136;51.022;7.082;2023-02-28T02:52:39;-2.10;1.00
48328;DHT22;34136;51.022;7.082;2023-02-28T02:55:27;-2.20;1.00
48328;DHT22;34136;51.022;7.082;2023-02-28T02:58:16;-2.20;1.00
48328;DHT22;34136;51.022;7.082;2023-02-28T03:01:05;-2.20;1.00
48328;DHT22;34136;51.022;7.082;2023-02-28T03:03:51;-2.40;1.00
48328;DHT22;34136;51.022;7.082;2023-02-28T03:06:37;-2.50;1.00
48328;DHT22;34136;51.022;7.082;2023-02-28T03:09:25;-2.40;1.00
48328;DHT22;34136;51.022;7.082;2023-02-28T03:12:12;-2.40;1.00
48328;DHT22;34136;51.022;7.082;2023-02-28T03:15:19;-2.40;1.00
48328;DHT22;34136;51.022;7.082;2023-02-28T03:18:27;-2.40;1.00
48328;DHT22;34136;51.022;7.082;2023-02-28T03:24:31;-2.30;1.00
48328;DHT22;34136;51.022;7.082;2023-02-28T03:27:23;-2.30;1.00
48328;DHT22;34136;51.022;7.082;2023-02-28T03:30:23;-2.30;1.00
48328;DHT22;34136;51.022;7.082;2023-02-28T03:33:17;-2.30;1.00
48328;DHT22;34136;51.022;7.082;2023-02-28T03:36:11;-2.40;1.00
48328;DHT22;34136;51.022;7.082;2023-02-28T03:39:01;-2.40;1.00
48328;DHT22;34136;51.022;7.082;2023-02-28T03:41:50;-2.40;1.00
48328;DHT22;34136;51.022;7.082;2023-02-28T03:44:43;-2.50;1.00
48328;DHT22;34136;51.022;7.082;2023-02-28T03:47:53;-2.50;1.00
48328;DHT22;34136;51.022;7.082;2023-02-28T03:50:42;-2.60;1.00
48328;DHT22;34136;51.022;7.082;2023-02-28T03:53:36;-2.50;1.00
48328;DHT22;34136;51.022;7.082;2023-02-28T03:56:37;-2.50;1.00
48328;DHT22;34136;51.022;7.082;2023-02-28T03:59:33;-2.40;1.00
48328;DHT22;34136;51.022;7.082;2023-02-28T04:02:20;-2.50;1.00
48328;DHT22;34136;51.022;7.082;2023-02-28T04:05:07;-2.50;1.00
48328;DHT22;34136;51.022;7.082;2023-02-28T04:07:54;-2.50;1.00
48328;DHT22;34136;51.022;7.082;2023-02-28T04:11:06;-2.40;1.00
48328;DHT22;34136;51.022;7.082;2023-02-28T04:13:54;-2.40;1.00
48328;DHT22;34136;51.022;7.082;2023-02-28T04:16:42;-2.40;1.00
48328;DHT22;34136;51.022;7.082;2023-02-28T04:19:28;-2.40;1.00
48328;DHT22;34136;51.022;7.082;2023-02-28T04:22:15;-2.30;1.00
48328;DHT22;34136;51.022;7.082;2023-02-28T04:25:01;-2.40;1.00
48328;DHT22;34136;51.022;7.082;2023-02-28T04:27:47;-2.30;1.00
48328;DHT22;34136;51.022;7.082;2023-02-28T04:30:33;-2.20;1.00
48328;DHT22;34136;51.022;7.082;2023-02-28T04:33:19;-2.20;1.00
48328;DHT22;34136;51.022;7.082;2023-02-28T04:36:08;-2.10;1.00
48328;DHT22;34136;51.022;7.082;2023-02-28T04:38:55;-2.10;1.00
48328;DHT22;34136;51.022;7.082;2023-02-28T04:41:41;-2.00;1.00
48328;DHT22;34136;51.022;7.082;2023-02-28T04:44:27;-2.00;1.00
48328;DHT22;34136;51.022;7.082;2023-02-28T04:47:14;-1.90;1.00
48328;DHT22;34136;51.022;7.082;2023-02-28T04:50:00;-1.80;1.00
48328;DHT22;34136;51.022;7.082;2023-02-28T04:52:46;-1.80;1.00
48328;DHT22;34136;51.022;7.082;2023-02-28T04:55:32;-1.70;1.00
48328;DHT22;34136;51.022;7.082;2023-02-28T04:58:19;-1.70;1.00
48328;DHT22;34136;51.022;7.082;2023-02-28T05:01:18;-1.60;1.00
48328;DHT22;34136;51.022;7.082;2023-02-28T05:04:04;-1.60;1.00
48328;DHT22;34136;51.022;7.082;2023-02-28T05:06:51;-1.60;1.00
48328;DHT22;34136;51.022;7.082;2023-02-28T05:09:37;-1.60;1.00
48328;DHT22;34136;51.022;7.082;2023-02-28T05:12:23;-1.50;1.00
48328;DHT22;34136;51.022;7.082;2023-02-28T05:15:14;-1.60;1.00
48328;DHT22;34136;51.022;7.082;2023-02-28T05:18:00;-1.50;1.00
48328;DHT22;34136;51.022;7.082;2023-02-28T05:20:47;-1.50;1.00
48328;DHT22;34136;51.022;7.082;2023-02-28T05:23:33;-1.50;1.00
48328;DHT22;34136;51.022;7.082;2023-02-28T05:26:19;-1.50;1.00
48328;DHT22;34136;51.022;7.082;2023-02-28T05:29:05;-1.50;1.00
48328;DHT22;34136;51.022;7.082;2023-02-28T05:31:52;-1.50;1.00
48328;DHT22;34136;51.022;7.082;2023-02-28T05:34:39;-1.40;1.00
48328;DHT22;34136;51.022;7.082;2023-02-28T05:37:25;-1.40;1.00
48328;DHT22;34136;51.022;7.082;2023-02-28T05:40:12;-1.50;1.00
48328;DHT22;34136;51.022;7.082;2023-02-28T05:42:58;-1.50;1.00
48328;DHT22;34136;51.022;7.082;2023-02-28T05:45:44;-1.50;1.00
48328;DHT22;34136;51.022;7.082;2023-02-28T05:48:32;-1.50;1.00
48328;DHT22;34136;51.022;7.082;2023-02-28T05:51:18;-1.50;1.00
48328;DHT22;34136;51.022;7.082;2023-02-28T05:54:04;-1.60;1.00
48328;DHT22;34136;51.022;7.082;2023-02-28T05:56:50;-1.60;1.00
48328;DHT22;34136;51.022;7.082;2023-02-28T05:59:37;-1.60;1.00
48328;DHT22;34136;51.022;7.082;2023-02-28T06:02:23;-1.60;1.00
48328;DHT22;34136;51.022;7.082;2023-02-28T06:05:18;-1.60;1.00
48328;DHT22;34136;51.022;7.082;2023-02-28T06:08:04;-1.60;1.00
48328;DHT22;34136;51.022;7.082;2023-02-28T06:10:50;-1.60;1.00
48328;DHT22;34136;51.022;7.082;2023-02-28T06:13:36;-1.60;1.00
48328;DHT22;34136;51.022;7.082;2023-02-28T06:16:23;-1.60;1.00
48328;DHT22;34136;51.022;7.082;2023-02-28T06:19:11;-1.70;1.00
48328;DHT22;34136;51.022;7.082;2023-02-28T06:21:57;-1.70;1.00
48328;DHT22;34136;51.022;7.082;2023-02-28T06:24:43;-1.80;1.00
48328;DHT22;34136;51.022;7.082;2023-02-28T06:27:31;-1.90;1.00
48328;DHT22;34136;51.022;7.082;2023-02-28T06:30:17;-1.90;1.00
48328;DHT22;34136;51.022;7.082;2023-02-28T06:33:04;-1.90;1.00
48328;DHT22;34136;51.022;7.082;2023-02-28T06:35:51;-1.90;1.00
48328;DHT22;34136;51.022;7.082;2023-02-28T06:38:37;-2.00;1.00
48328;DHT22;34136;51.022;7.082;2023-02-28T06:41:26;-2.00;1.00
48328;DHT22;34136;51.022;7.082;2023-02-28T06:44:15;-2.00;1.00
48328;DHT22;34136;51.022;7.082;2023-02-28T06:47:04;-2.10;1.00
48328;DHT22;34136;51.022;7.082;2023-02-28T06:49:51;-2.10;1.00
48328;DHT22;34136;51.022;7.082;2023-02-28T06:52:37;-2.00;1.00
48328;DHT22;34136;51.022;7.082;2023-02-28T06:55:23;-1.90;1.00
48328;DHT22;34136;51.022;7.082;2023-02-28T06:58:09;-1.90;1.00
48328;DHT22;34136;51.022;7.082;2023-02-28T07:00:56;-1.90;1.00
48328;DHT22;34136;51.022;7.082;2023-02-28T07:03:42;-1.80;1.00
48328;DHT22;34136;51.022;7.082;2023-02-28T07:06:29;-1.70;1.00
48328;DHT22;34136;51.022;7.082;2023-02-28T07:09:15;-1.60;1.00
48328;DHT22;34136;51.022;7.082;2023-02-28T07:12:01;-1.50;1.00
48328;DHT22;34136;51.022;7.082;2023-02-28T07:14:48;-1.50;1.00
48328;DHT22;34136;51.022;7.082;2023-02-28T07:17:34;-1.40;1.00
48328;DHT22;34136;51.022;7.082;2023-02-28T07:20:20;-1.30;1.00
48328;DHT22;34136;51.022;7.082;2023-02-28T07:23:06;-1.20;1.00
48328;DHT22;34136;51.022;7.082;2023-02-28T07:25:52;-1.10;1.00
48328;DHT22;34136;51.022;7.082;2023-02-28T07:28:38;-1.10;1.00
48328;DHT22;34136;51.022;7.082;2023-02-28T07:31:24;-1.10;1.00
48328;DHT22;34136;51.022;7.082;2023-02-28T07:34:11;-1.00;1.00
48328;DHT22;34136;51.022;7.082;2023-02-28T07:36:57;-0.90;1.00
48328;DHT22;34136;51.022;7.082;2023-02-28T07:39:43;-0.80;1.00
48328;DHT22;34136;51.022;7.082;2023-02-28T07:42:29;-0.70;1.00
48328;DHT22;34136;51.022;7.082;2023-02-28T07:45:16;-0.70;1.00
48328;DHT22;34136;51.022;7.082;2023-02-28T07:48:02;-0.60;1.00
48328;DHT22;34136;51.022;7.082;2023-02-28T07:50:56;-0.50;1.00
48328;DHT22;34136;51.022;7.082;2023-02-28T07:53:42;-0.40;1.00
48328;DHT22;34136;51.022;7.082;2023-02-28T07:56:28;-0.30;1.00
48328;DHT22;34136;51.022;7.082;2023-02-28T07:59:14;-0.20;1.00
48328;DHT22;34136;51.022;7.082;2023-02-28T08:02:00;-0.10;1.00
48328;DHT22;34136;51.022;7.082;2023-02-28T08:05:06;0.00;1.00
48328;DHT22;34136;51.022;7.082;2023-02-28T08:07:52;0.10;1.00
48328;DHT22;34136;51.022;7.082;2023-02-28T08:10:38;0.30;1.00
48328;DHT22;34136;51.022;7.082;2023-02-28T08:13:24;0.30;1.00
48328;DHT22;34136;51.022;7.082;2023-02-28T08:16:12;0.50;1.00
48328;DHT22;34136;51.022;7.082;2023-02-28T08:18:59;0.60;1.00
48328;DHT22;34136;51.022;7.082;2023-02-28T08:21:45;0.70;1.00
48328;DHT22;34136;51.022;7.082;2023-02-28T08:24:32;0.90;1.00
48328;DHT22;34136;51.022;7.082;2023-02-28T08:27:18;1.10;1.00
48328;DHT22;34136;51.022;7.082;2023-02-28T08:30:05;1.20;1.00
48328;DHT22;34136;51.022;7.082;2023-02-28T08:32:51;1.30;1.00
48328;DHT22;34136;51.022;7.082;2023-02-28T08:35:37;1.50;1.00
48328;DHT22;34136;51.022;7.082;2023-02-28T08:38:24;1.60;1.00
48328;DHT22;34136;51.022;7.082;2023-02-28T08:41:12;1.70;1.00
48328;DHT22;34136;51.022;7.082;2023-02-28T08:43:58;1.80;1.00
48328;DHT22;34136;51.022;7.082;2023-02-28T08:46:44;1.90;1.00
48328;DHT22;34136;51.022;7.082;2023-02-28T08:49:31;2.00;1.00
48328;DHT22;34136;51.022;7.082;2023-02-28T08:52:17;2.10;1.00
48328;DHT22;34136;51.022;7.082;2023-02-28T08:55:04;2.20;1.00
48328;DHT22;34136;51.022;7.082;2023-02-28T08:57:50;2.40;1.00
48328;DHT22;34136;51.022;7.082;2023-02-28T09:00:36;2.50;1.00
48328;DHT22;34136;51.022;7.082;2023-02-28T09:03:23;2.50;1.00
48328;DHT22;34136;51.022;7.082;2023-02-28T09:06:10;2.60;1.00
48328;DHT22;34136;51.022;7.082;2023-02-28T09:08:57;2.70;1.00
48328;DHT22;34136;51.022;7.082;2023-02-28T09:11:43;2.80;1.00
48328;DHT22;34136;51.022;7.082;2023-02-28T09:14:29;2.90;1.00
48328;DHT22;34136;51.022;7.082;2023-02-28T09:17:16;3.00;1.00
48328;DHT22;34136;51.022;7.082;2023-02-28T09:20:02;3.10;1.00
48328;DHT22;34136;51.022;7.082;2023-02-28T09:22:48;3.10;1.00
48328;DHT22;34136;51.022;7.082;2023-02-28T09:25:35;3.30;1.00
48328;DHT22;34136;51.022;7.082;2023-02-28T09:28:22;3.50;1.00
48328;DHT22;34136;51.022;7.082;2023-02-28T09:31:17;3.70;1.00
48328;DHT22;34136;51.022;7.082;2023-02-28T09:34:04;3.80;1.00
48328;DHT22;34136;51.022;7.082;2023-02-28T09:36:50;3.70;1.00
48328;DHT22;34136;51.022;7.082;2023-02-28T09:39:37;3.80;1.00
48328;DHT22;34136;51.022;7.082;2023-02-28T09:42:33;3.90;1.00
48328;DHT22;34136;51.022;7.082;2023-02-28T09:45:27;3.90;1.00
48328;DHT22;34136;51.022;7.082;2023-02-28T09:48:21;4.00;1.00
48328;DHT22;34136;51.022;7.082;2023-02-28T09:54:31;4.10;1.00
48328;DHT22;34136;51.022;7.082;2023-02-28T09:57:32;4.00;1.00
48328;DHT22;34136;51.022;7.082;2023-02-28T10:00:24;4.00;1.00
48328;DHT22;34136;51.022;7.082;2023-02-28T10:03:24;3.90;1.00
48328;DHT22;34136;51.022;7.082;2023-02-28T10:06:14;4.00;1.00
48328;DHT22;34136;51.022;7.082;2023-02-28T10:09:17;4.00;1.00
48328;DHT22;34136;51.022;7.082;2023-02-28T10:12:05;4.30;1.00
48328;DHT22;34136;51.022;7.082;2023-02-28T10:14:52;4.50;1.00
48328;DHT22;34136;51.022;7.082;2023-02-28T10:17:42;4.40;1.00
48328;DHT22;34136;51.022;7.082;2023-02-28T10:20:31;4.50;1.00
48328;DHT22;34136;51.022;7.082;2023-02-28T10:23:32;4.60;1.00
48328;DHT22;34136;51.022;7.082;2023-02-28T10:26:19;4.70;1.00
48328;DHT22;34136;51.022;7.082;2023-02-28T10:29:08;4.70;1.00
48328;DHT22;34136;51.022;7.082;2023-02-28T10:31:54;4.70;1.00
48328;DHT22;34136;51.022;7.082;2023-02-28T10:34:40;4.60;1.00
48328;DHT22;34136;51.022;7.082;2023-02-28T10:37:27;4.60;1.00
48328;DHT22;34136;51.022;7.082;2023-02-28T10:51:43;4.60;1.00
48328;DHT22;34136;51.022;7.082;2023-02-28T10:54:33;4.70;1.00
48328;DHT22;34136;51.022;7.082;2023-02-28T10:57:23;4.80;1.00
48328;DHT22;34136;51.022;7.082;2023-02-28T11:00:19;5.00;1.00
48328;DHT22;34136;51.022;7.082;2023-02-28T11:03:29;4.80;1.00
48328;DHT22;34136;51.022;7.082;2023-02-28T11:10:16;5.30;1.00
48328;DHT22;34136;51.022;7.082;2023-02-28T11:13:03;5.40;1.00
48328;DHT22;34136;51.022;7.082;2023-02-28T11:15:57;5.40;1.00
48328;DHT22;34136;51.022;7.082;2023-02-28T11:18:53;5.30;1.00
48328;DHT22;34136;51.022;7.082;2023-02-28T11:21:56;5.60;1.00
48328;DHT22;34136;51.022;7.082;2023-02-28T11:24:47;5.70;1.00
48328;DHT22;34136;51.022;7.082;2023-02-28T11:27:46;5.60;1.00
48328;DHT22;34136;51.022;7.082;2023-02-28T11:30:39;5.70;1.00
48328;DHT22;34136;51.022;7.082;2023-02-28T11:33:29;5.70;1.00
48328;DHT22;34136;51.022;7.082;2023-02-28T11:36:33;5.70;1.00
48328;DHT22;34136;51.022;7.082;2023-02-28T11:39:20;5.60;1.00
48328;DHT22;34136;51.022;7.082;2023-02-28T11:46:09;5.80;1.00
48328;DHT22;34136;51.022;7.082;2023-02-28T11:52:23;5.50;1.00
48328;DHT22;34136;51.022;7.082;2023-02-28T12:02:31;6.40;1.00
48328;DHT22;34136;51.022;7.082;2023-02-28T12:12:03;6.00;1.00
48328;DHT22;34136;51.022;7.082;2023-02-28T12:15:13;6.00;1.00
48328;DHT22;34136;51.022;7.082;2023-02-28T12:21:55;6.20;1.00
48328;DHT22;34136;51.022;7.082;2023-02-28T12:27:54;6.30;1.00
48328;DHT22;34136;51.022;7.082;2023-02-28T12:30:47;6.50;1.00
48328;DHT22;34136;51.022;7.082;2023-02-28T12:33:40;6.60;1.00
48328;DHT22;34136;51.022;7.082;2023-02-28T12:36:28;6.40;1.00
48328;DHT22;34136;51.022;7.082;2023-02-28T12:39:31;6.40;1.00
48328;DHT22;34136;51.022;7.082;2023-02-28T12:42:28;6.40;1.00
48328;DHT22;34136;51.022;7.082;2023-02-28T12:45:23;6.50;1.00
48328;DHT22;34136;51.022;7.082;2023-02-28T12:48:15;6.60;1.00
48328;DHT22;34136;51.022;7.082;2023-02-28T12:51:03;6.70;1.00
48328;DHT22;34136;51.022;7.082;2023-02-28T13:00:16;6.90;1.00
48328;DHT22;34136;51.022;7.082;2023-02-28T13:09:40;7.00;1.00
48328;DHT22;34136;51.022;7.082;2023-02-28T13:12:27;7.10;1.00
48328;DHT22;34136;51.022;7.082;2023-02-28T13:18:20;7.00;1.00
48328;DHT22;34136;51.022;7.082;2023-02-28T13:21:29;6.90;1.00
48328;DHT22;34136;51.022;7.082;2023-02-28T13:24:38;7.20;1.00
48328;DHT22;34136;51.022;7.082;2023-02-28T13:27:38;7.50;1.00
48328;DHT22;34136;51.022;7.082;2023-02-28T13:36:43;7.30;1.00
48328;DHT22;34136;51.022;7.082;2023-02-28T13:45:29;6.80;1.00
48328;DHT22;34136;51.022;7.082;2023-02-28T13:48:18;6.80;1.00
48328;DHT22;34136;51.022;7.082;2023-02-28T13:51:43;6.90;1.00
48328;DHT22;34136;51.022;7.082;2023-02-28T13:57:53;7.10;1.00
48328;DHT22;34136;51.022;7.082;2023-02-28T14:04:50;7.20;1.00
48328;DHT22;34136;51.022;7.082;2023-02-28T14:08:27;7.50;1.00
48328;DHT22;34136;51.022;7.082;2023-02-28T14:11:06;7.40;1.00
48328;DHT22;34136;51.022;7.082;2023-02-28T14:13:52;7.30;1.00
48328;DHT22;34136;51.022;7.082;2023-02-28T14:16:43;7.30;1.00
48328;DHT22;34136;51.022;7.082;2023-02-28T14:19:31;7.30;1.00
48328;DHT22;34136;51.022;7.082;2023-02-28T14:26:03;7.40;1.00
48328;DHT22;34136;51.022;7.082;2023-02-28T14:36:07;7.10;1.00
48328;DHT22;34136;51.022;7.082;2023-02-28T14:38:59;7.20;1.00
48328;DHT22;34136;51.022;7.082;2023-02-28T14:41:48;7.20;1.00
48328;DHT22;34136;51.022;7.082;2023-02-28T14:44:56;7.00;1.00
48328;DHT22;34136;51.022;7.082;2023-02-28T14:47:43;6.90;1.00
48328;DHT22;34136;51.022;7.082;2023-02-28T14:50:35;7.00;1.00
48328;DHT22;34136;51.022;7.082;2023-02-28T14:53:25;7.00;1.00
48328;DHT22;34136;51.022;7.082;2023-02-28T14:56:37;7.00;1.00
48328;DHT22;34136;51.022;7.082;2023-02-28T14:59:33;7.10;1.00
48328;DHT22;34136;51.022;7.082;2023-02-28T15:02:22;6.90;1.00
48328;DHT22;34136;51.022;7.082;2023-02-28T15:09:19;7.00;1.00
48328;DHT22;34136;51.022;7.082;2023-02-28T15:18:54;7.10;1.00
48328;DHT22;34136;51.022;7.082;2023-02-28T15:22:02;7.20;1.00
48328;DHT22;34136;51.022;7.082;2023-02-28T15:24:51;6.90;1.00
48328;DHT22;34136;51.022;7.082;2023-02-28T15:27:44;6.90;1.00
48328;DHT22;34136;51.022;7.082;2023-02-28T15:30:31;6.90;1.00
48328;DHT22;34136;51.022;7.082;2023-02-28T15:33:20;7.00;1.00
48328;DHT22;34136;51.022;7.082;2023-02-28T15:38:58;6.80;1.00
48328;DHT22;34136;51.022;7.082;2023-02-28T15:41:44;6.80;1.00
48328;DHT22;34136;51.022;7.082;2023-02-28T15:44:33;6.70;1.00
48328;DHT22;34136;51.022;7.082;2023-02-28T15:47:25;6.60;1.00
48328;DHT22;34136;51.022;7.082;2023-02-28T15:50:14;6.70;1.00
48328;DHT22;34136;51.022;7.082;2023-02-28T15:53:01;6.70;1.00
48328;DHT22;34136;51.022;7.082;2023-02-28T15:56:22;6.70;1.00
48328;DHT22;34136;51.022;7.082;2023-02-28T15:59:16;6.80;1.00
48328;DHT22;34136;51.022;7.082;2023-02-28T16:02:14;6.60;1.00
48328;DHT22;34136;51.022;7.082;2023-02-28T16:31:26;6.30;1.00
48328;DHT22;34136;51.022;7.082;2023-02-28T16:34:12;6.20;1.00
48328;DHT22;34136;51.022;7.082;2023-02-28T16:36:58;6.10;1.00
48328;DHT22;34136;51.022;7.082;2023-02-28T16:39:45;6.00;1.00
48328;DHT22;34136;51.022;7.082;2023-02-28T16:42:31;6.00;1.00
48328;DHT22;34136;51.022;7.082;2023-02-28T16:45:21;6.10;1.00
48328;DHT22;34136;51.022;7.082;2023-02-28T16:48:12;6.10;1.00
48328;DHT22;34136;51.022;7.082;2023-02-28T16:50:59;5.90;1.00
48328;DHT22;34136;51.022;7.082;2023-02-28T16:53:45;5.90;1.00
48328;DHT22;34136;51.022;7.082;2023-02-28T16:56:35;5.90;1.00
48328;DHT22;34136;51.022;7.082;2023-02-28T16:59:23;5.80;1.00
48328;DHT22;34136;51.022;7.082;2023-02-28T17:02:15;5.80;1.00
48328;DHT22;34136;51.022;7.082;2023-02-28T17:05:02;5.80;1.00
48328;DHT22;34136;51.022;7.082;2023-02-28T17:07:50;5.70;1.00
48328;DHT22;34136;51.022;7.082;2023-02-28T17:10:36;5.70;1.00
48328;DHT22;34136;51.022;7.082;2023-02-28T17:13:22;5.60;1.00
48328;DHT22;34136;51.022;7.082;2023-02-28T17:19:14;5.50;1.00
48328;DHT22;34136;51.022;7.082;2023-02-28T17:22:02;5.50;1.00
48328;DHT22;34136;51.022;7.082;2023-02-28T17:24:48;5.50;1.00
48328;DHT22;34136;51.022;7.082;2023-02-28T17:27:34;5.50;1.00
48328;DHT22;34136;51.022;7.082;2023-02-28T17:30:23;5.40;1.00
48328;DHT22;34136;51.022;7.082;2023-02-28T17:33:28;5.40;1.00
48328;DHT22;34136;51.022;7.082;2023-02-28T17:36:16;5.20;1.00
48328;DHT22;34136;51.022;7.082;2023-02-28T17:39:04;5.10;1.00
48328;DHT22;34136;51.022;7.082;2023-02-28T17:41:55;5.00;1.00
48328;DHT22;34136;51.022;7.082;2023-02-28T17:44:42;4.90;1.00
48328;DHT22;34136;51.022;7.082;2023-02-28T17:47:28;4.80;1.00
48328;DHT22;34136;51.022;7.082;2023-02-28T17:50:20;4.90;1.00
48328;DHT22;34136;51.022;7.082;2023-02-28T17:53:07;4.90;1.00
48328;DHT22;34136;51.022;7.082;2023-02-28T17:55:54;4.80;1.00
48328;DHT22;34136;51.022;7.082;2023-02-28T17:58:41;4.80;1.00
48328;DHT22;34136;51.022;7.082;2023-02-28T18:01:27;4.70;1.00
48328;DHT22;34136;51.022;7.082;2023-02-28T18:04:14;4.60;1.00
48328;DHT22;34136;51.022;7.082;2023-02-28T18:07:00;4.50;1.00
48328;DHT22;34136;51.022;7.082;2023-02-28T18:09:46;4.40;1.00
48328;DHT22;34136;51.022;7.082;2023-02-28T18:12:33;4.40;1.00
48328;DHT22;34136;51.022;7.082;2023-02-28T18:15:20;4.40;1.00
48328;DHT22;34136;51.022;7.082;2023-02-28T18:18:07;4.30;1.00
48328;DHT22;34136;51.022;7.082;2023-02-28T18:20:53;4.30;1.00
48328;DHT22;34136;51.022;7.082;2023-02-28T18:23:39;4.20;1.00
48328;DHT22;34136;51.022;7.082;2023-02-28T18:26:26;4.20;1.00
48328;DHT22;34136;51.022;7.082;2023-02-28T19:38:31;2.30;1.00
48328;DHT22;34136;51.022;7.082;2023-02-28T19:41:18;2.30;1.00
48328;DHT22;34136;51.022;7.082;2023-02-28T19:44:04;2.20;1.00
48328;DHT22;34136;51.022;7.082;2023-02-28T19:46:50;2.10;1.00
48328;DHT22;34136;51.022;7.082;2023-02-28T19:49:36;2.00;1.00
48328;DHT22;34136;51.022;7.082;2023-02-28T19:52:24;1.80;1.00
48328;DHT22;34136;51.022;7.082;2023-02-28T19:55:10;1.80;1.00
48328;DHT22;34136;51.022;7.082;2023-02-28T19:57:56;1.70;1.00
48328;DHT22;34136;51.022;7.082;2023-02-28T20:00:42;1.60;1.00
48328;DHT22;34136;51.022;7.082;2023-02-28T20:03:28;1.50;1.00
48328;DHT22;34136;51.022;7.082;2023-02-28T20:06:23;1.50;1.00
48328;DHT22;34136;51.022;7.082;2023-02-28T20:09:09;1.40;1.00
48328;DHT22;34136;51.022;7.082;2023-02-28T20:11:55;1.30;1.00
48328;DHT22;34136;51.022;7.082;2023-02-28T20:14:41;1.30;1.00
48328;DHT22;34136;51.022;7.082;2023-02-28T20:17:28;1.40;1.00
48328;DHT22;34136;51.022;7.082;2023-02-28T20:20:14;1.40;1.00
48328;DHT22;34136;51.022;7.082;2023-02-28T20:23:01;1.30;1.00
48328;DHT22;34136;51.022;7.082;2023-02-28T20:25:46;1.20;1.00
48328;DHT22;34136;51.022;7.082;2023-02-28T20:28:33;1.20;1.00
48328;DHT22;34136;51.022;7.082;2023-02-28T20:31:21;1.10;1.00
48328;DHT22;34136;51.022;7.082;2023-02-28T21:48:53;-0.10;1.00
48328;DHT22;34136;51.022;7.082;2023-02-28T21:51:40;-0.10;1.00
48328;DHT22;34136;51.022;7.082;2023-02-28T21:54:27;-0.20;1.00
48328;DHT22;34136;51.022;7.082;2023-02-28T21:57:13;-0.20;1.00
48328;DHT22;34136;51.022;7.082;2023-02-28T21:59:59;-0.20;1.00
48328;DHT22;34136;51.022;7.082;2023-02-28T22:02:46;-0.20;1.00
48328;DHT22;34136;51.022;7.082;2023-02-28T22:05:32;-0.30;1.00
48328;DHT22;34136;51.022;7.082;2023-02-28T22:08:18;-0.30;1.00
48328;DHT22;34136;51.022;7.082;2023-02-28T22:11:04;-0.40;1.00
48328;DHT22;34136;51.022;7.082;2023-02-28T22:13:52;-0.40;1.00
48328;DHT22;34136;51.022;7.082;2023-02-28T22:16:39;-0.40;1.00
48328;DHT22;34136;51.022;7.082;2023-02-28T22:19:26;-0.30;1.00
48328;DHT22;34136;51.022;7.082;2023-02-28T22:22:12;-0.40;1.00
48328;DHT22;34136;51.022;7.082;2023-02-28T22:24:58;-0.30;1.00
48328;DHT22;34136;51.022;7.082;2023-02-28T22:27:45;-0.40;1.00
48328;DHT22;34136;51.022;7.082;2023-02-28T22:30:31;-0.30;1.00
48328;DHT22;34136;51.022;7.082;2023-02-28T22:33:17;-0.30;1.00
48328;DHT22;34136;51.022;7.082;2023-02-28T22:36:04;-0.40;1.00
48328;DHT22;34136;51.022;7.082;2023-02-28T22:38:51;-0.50;1.00
48328;DHT22;34136;51.022;7.082;2023-02-28T22:41:38;-0.60;1.00
48328;DHT22;34136;51.022;7.082;2023-02-28T22:44:24;-0.60;1.00
